Portada
METAR-TAF:

METAR-TAF

Aeroports :

Kuala Lumpur, Malàisia

latitud: 02-44N, longitud: 101-42E, altitud: 21 m

Observació

L'informe es va fer fa 34 minuts, a les 01:00 UTC
Vent 4 kt del Sud-Est
Temperatura 30°C
Humitat 79%
Pressió 1010 hPa
Visibilitat 10 km o més
Escasses núvols a una alçada de 1700 ft, Cumulonimbus.

METAR: WMKK 030100Z 13004KT 9999 FEW017CB 30/26 Q1010 NOSIG

Hora: 09:34 (01:34 UTC)

Pronòstic

L'informe es va fer fa 2 hores i 34 minuts, a les 23:00 UTC
Pronòstic vàlid del 03 a les 00 UTC al 04 a les 06 UTC
Vent 2 kt amb direcció variable
Visibilitat 10 km o més
Escasses núvols a una alçada de 1800 ft
Probabilitat 30% :
Temporalment
l' 03 a les 03 UTC al 03 a les 07 UTC
Visibilitat: 4000 m
Escasses núvols a una alçada de 1700 ft, Cumulonimbus.
tempesta, pluja

TAF: WMKK 022300Z 0300/0406 VRB02KT 9999 FEW018 PROB30 TEMPO 0303/0307 4000 TSRA FEW017CB

Observacions i pronòstics meteorològics de més de 4000 aeroports (METAR i TAF).

Les estacions disponibles són els punts grocs i vermells al mapa.

Posi el ratolí al punt desitjat per veure el nom de l'estació.

Feu clic per veure les observacions i els pronòstics meteorològics.

Per canviar el mapa: feu clic els botons verds amb una creu de color negre per apropar; al botó verd amb un guió per allunyar la imatge; o en les fletxes verdes per a mapes adjacents.


METAR-TAF: